• Join FlightAware (Why Join?)
  • Login
  • US Flag 
05:01AM EDT


 

Airport Tracker/Info


-or-


 

Live Flight TrackerFlight Track Log ✈ N312BL ✈ 13-Jul-2013 ✈ 0G7 - KOXC

Flight Track Log - Related Links

Times and Time Zones

All times are in EDT time to prevent confusion due to time zone crossing. See the N312BL flight status page for this flight to view local times or setup timezone preferences in your user account.

Time Position Orientation Groundspeed Altitude Reporting Facility
EDT Latitude Longitude Course Direction KTS MPH feet Rate Location/Type
01:27PM 42.8428 -76.7817 114° Southeast 141 162 2,100  Level Boston Center
01:28PM 42.7875 -76.7553 161° South 232 267 2,200  Climbing Boston Center
01:29PM 42.7572 -76.6739 117° Southeast 257 296 2,200 960 Level Boston Center
01:30PM 42.7289 -76.5900 115° Southeast 245 282 4,200 2,280 Climbing Boston Center
01:31PM 42.7047 -76.5147 114° Southeast 203 234 6,900 1,920 Climbing Boston Center
01:32PM 42.6800 -76.4483 117° Southeast 196 226 8,100 1,620 Climbing Boston Center
01:33PM 42.7233 -76.3410 114° Southeast  Level Estimated
01:33PM 42.6556 -76.3703 113° Southeast 215 247 10,300  Level Boston Center
01:35PM 42.6075 -76.2353 116° Southeast 230 265 13,200 1,560 Climbing New York Center
01:36PM 42.5817 -76.1600 115° Southeast 219 252 14,800 1,380 Climbing New York Center
01:37PM 42.5558 -76.0847 115° Southeast 219 252 15,900 1,080 Climbing New York Center
01:38PM 42.5317 -76.0158 115° Southeast 292 336 17,000 1,020 Climbing Boston Center
01:39PM 42.5011 -75.9294 116° Southeast 256 295 18,000 840 Climbing Boston Center
01:40PM 42.4742 -75.8519 115° Southeast 238 274 18,700 780 Climbing Boston Center
01:41PM 42.4453 -75.7717 116° Southeast 238 274 19,600 900 Climbing Boston Center
01:42PM 42.4228 -75.6861 110° East 238 274 20,500 660 Climbing Boston Center
01:43PM 42.4067 -75.5897 103° East 250 288 21,000 240 Climbing Boston Center
01:44PM 42.3886 -75.4847 103° East 271 312 21,000  Level Boston Center
01:45PM 42.3667 -75.3711 105° East 292 336 21,000 -240 Level Boston Center
01:46PM 42.3428 -75.2492 105° East 312 359 20,600 -600 Descending Boston Center
01:47PM 42.3206 -75.1303 104° East 318 366 19,700 -960 Descending Boston Center
01:48PM 42.2925 -74.9914 105° East 324 373 18,500 -960 Descending Boston Center
01:49PM 42.2722 -74.8728 103° East 324 373 17,800 -900 Descending Boston Center
01:50PM 42.2475 -74.7597 106° East 324 373 16,700 -1,140 Descending Boston Center
01:51PM 42.2247 -74.6411 105° East 324 373 15,600 -900 Descending Boston Center
01:52PM 42.2000 -74.5225 106° East 324 373 14,900 -300 Descending Boston Center
01:53PM 42.1603 -74.4119 116° Southeast 305 351 15,000  Climbing Boston Center
01:54PM 42.1222 -74.3128 117° Southeast 296 341 15,000 -600 Level Boston Center
01:55PM 42.0803 -74.2108 119° Southeast 308 354 13,800 -1,320 Descending Boston Center
01:56PM 42.0297 -74.1114 124° Southeast 321 369 12,400 -1,440 Descending Boston Center
01:57PM 41.9706 -74.0206 131° Southeast 321 369 11,000 -720 Descending Boston Center
01:58PM 41.9089 -73.9492 139° Southeast 307 353 11,000 -540 Level Boston Center
01:59PM 41.8536 -73.8783 136° Southeast 292 336 10,000 -960 Descending Boston Center
02:00PM 41.8003 -73.8131 138° Southeast 267 307 9,100 -780 Descending Boston Center
02:01PM 41.7467 -73.7450 137° Southeast 261 300 8,500 -720 Descending Boston Center
02:02PM 41.6953 -73.6856 139° Southeast 266 306 7,700 -840 Descending Boston Center
02:04PM 41.5833 -73.5333 134° Southeast 272 313 6,000 -900 Descending New York TRACON
02:05PM 41.5167 -73.4667 143° Southeast 264 304 5,100 -1,080 Descending New York TRACON
02:06PM 41.4667 -73.4167 143° Southeast 247 284 3,900 -600 Descending New York TRACON
02:07PM 41.5000 -73.3333 62° Northeast 252 290 4,000  Climbing New York TRACON
02:08PM 41.5500 -73.2667 45° Northeast 265 305 4,000  Level New York TRACON
02:09PM 41.6000 -73.2667 360° North 253 291 4,000  Level New York TRACON
02:10PM 41.6667 -73.2333 20° North 230 265 4,000 -300 Level New York TRACON
02:11PM 41.6333 -73.1833 132° Southeast 182 209 3,400 -660 Descending New York TRACON
02:12PM 41.6000 -73.1667 159° South 151 174 2,700 -600 Descending New York TRACON
02:13PM 41.5667 -73.1500 159° South 126 145 2,200 -600 Descending New York TRACON